TAF KFDY
KFDY 270541Z 2706/2806 25006KT P6SM OVC080 FM272300 16007KT P6SM VCSH SCT018 OVC035 FM280400 22005KT P6SM VCSH SCT018 OVC025=
METAR KFDY
WC KFDY
WS KFDY
WV KFDY